sensor_id;sensor_type;location;lat;lon;timestamp;temperature;humidity
41533;DHT22;27262;-35.248;149.138;2023-02-26T00:02:00;22.30;62.80
41533;DHT22;27262;-35.248;149.138;2023-02-26T00:04:31;22.30;62.00
41533;DHT22;27262;-35.248;149.138;2023-02-26T00:07:02;22.30;61.90
41533;DHT22;27262;-35.248;149.138;2023-02-26T00:09:34;22.30;61.90
41533;DHT22;27262;-35.248;149.138;2023-02-26T00:12:24;22.30;61.90
41533;DHT22;27262;-35.248;149.138;2023-02-26T00:14:54;22.30;61.90
41533;DHT22;27262;-35.248;149.138;2023-02-26T00:20:01;22.30;61.90
41533;DHT22;27262;-35.248;149.138;2023-02-26T00:22:32;22.30;61.90
41533;DHT22;27262;-35.248;149.138;2023-02-26T00:25:03;22.30;61.80
41533;DHT22;27262;-35.248;149.138;2023-02-26T00:27:34;22.40;62.00
41533;DHT22;27262;-35.248;149.138;2023-02-26T00:30:07;22.30;61.90
41533;DHT22;27262;-35.248;149.138;2023-02-26T00:32:38;22.40;62.00
41533;DHT22;27262;-35.248;149.138;2023-02-26T00:35:13;22.40;62.10
41533;DHT22;27262;-35.248;149.138;2023-02-26T00:40:45;22.40;62.10
41533;DHT22;27262;-35.248;149.138;2023-02-26T00:43:19;22.40;62.20
41533;DHT22;27262;-35.248;149.138;2023-02-26T00:46:33;22.40;62.30
41533;DHT22;27262;-35.248;149.138;2023-02-26T00:49:45;22.40;62.20
41533;DHT22;27262;-35.248;149.138;2023-02-26T00:52:58;22.40;62.40
41533;DHT22;27262;-35.248;149.138;2023-02-26T00:55:31;22.40;62.50
41533;DHT22;27262;-35.248;149.138;2023-02-26T00:58:01;22.40;62.50
41533;DHT22;27262;-35.248;149.138;2023-02-26T01:00:31;22.40;62.60
41533;DHT22;27262;-35.248;149.138;2023-02-26T01:03:02;22.40;62.70
41533;DHT22;27262;-35.248;149.138;2023-02-26T01:05:32;22.50;62.70
41533;DHT22;27262;-35.248;149.138;2023-02-26T01:08:14;22.40;62.80
41533;DHT22;27262;-35.248;149.138;2023-02-26T01:10:54;22.50;63.00
41533;DHT22;27262;-35.248;149.138;2023-02-26T01:13:25;22.50;63.00
41533;DHT22;27262;-35.248;149.138;2023-02-26T01:16:12;22.50;63.10
41533;DHT22;27262;-35.248;149.138;2023-02-26T01:19:04;22.50;63.10
41533;DHT22;27262;-35.248;149.138;2023-02-26T01:21:45;22.50;63.10
41533;DHT22;27262;-35.248;149.138;2023-02-26T01:24:20;22.50;63.10
41533;DHT22;27262;-35.248;149.138;2023-02-26T01:26:51;22.50;63.10
41533;DHT22;27262;-35.248;149.138;2023-02-26T01:29:23;22.60;63.20
41533;DHT22;27262;-35.248;149.138;2023-02-26T01:32:07;22.60;63.10
41533;DHT22;27262;-35.248;149.138;2023-02-26T01:40:43;22.60;63.10
41533;DHT22;27262;-35.248;149.138;2023-02-26T01:43:31;22.60;63.10
41533;DHT22;27262;-35.248;149.138;2023-02-26T01:46:30;22.60;63.10
41533;DHT22;27262;-35.248;149.138;2023-02-26T01:49:02;22.60;63.10
41533;DHT22;27262;-35.248;149.138;2023-02-26T01:51:45;22.60;63.10
41533;DHT22;27262;-35.248;149.138;2023-02-26T01:54:18;22.70;63.10
41533;DHT22;27262;-35.248;149.138;2023-02-26T01:56:54;22.70;63.10
41533;DHT22;27262;-35.248;149.138;2023-02-26T01:59:25;22.70;63.10
41533;DHT22;27262;-35.248;149.138;2023-02-26T02:01:56;22.70;63.00
41533;DHT22;27262;-35.248;149.138;2023-02-26T02:04:27;22.70;63.00
41533;DHT22;27262;-35.248;149.138;2023-02-26T02:06:57;22.70;63.00
41533;DHT22;27262;-35.248;149.138;2023-02-26T02:09:28;22.70;63.00
41533;DHT22;27262;-35.248;149.138;2023-02-26T02:12:11;22.80;63.00
41533;DHT22;27262;-35.248;149.138;2023-02-26T02:23:26;22.80;63.00
41533;DHT22;27262;-35.248;149.138;2023-02-26T02:28:50;22.90;63.10
41533;DHT22;27262;-35.248;149.138;2023-02-26T02:31:34;22.80;63.00
41533;DHT22;27262;-35.248;149.138;2023-02-26T02:37:00;22.90;63.00
41533;DHT22;27262;-35.248;149.138;2023-02-26T02:40:00;22.90;63.00
41533;DHT22;27262;-35.248;149.138;2023-02-26T02:42:42;22.90;63.80
41533;DHT22;27262;-35.248;149.138;2023-02-26T02:45:29;22.90;64.00
41533;DHT22;27262;-35.248;149.138;2023-02-26T02:48:25;23.00;64.20
41533;DHT22;27262;-35.248;149.138;2023-02-26T02:53:37;23.00;64.20
41533;DHT22;27262;-35.248;149.138;2023-02-26T02:56:32;23.00;64.00
41533;DHT22;27262;-35.248;149.138;2023-02-26T02:59:28;23.00;63.90
41533;DHT22;27262;-35.248;149.138;2023-02-26T03:02:17;23.10;63.80
41533;DHT22;27262;-35.248;149.138;2023-02-26T03:04:49;23.10;63.80
41533;DHT22;27262;-35.248;149.138;2023-02-26T03:07:19;23.10;63.70
41533;DHT22;27262;-35.248;149.138;2023-02-26T03:09:50;23.10;63.60
41533;DHT22;27262;-35.248;149.138;2023-02-26T03:12:20;23.20;63.60
41533;DHT22;27262;-35.248;149.138;2023-02-26T03:14:50;23.20;63.50
41533;DHT22;27262;-35.248;149.138;2023-02-26T03:17:35;23.20;63.40
41533;DHT22;27262;-35.248;149.138;2023-02-26T03:20:15;23.20;63.30
41533;DHT22;27262;-35.248;149.138;2023-02-26T03:22:54;23.30;63.30
41533;DHT22;27262;-35.248;149.138;2023-02-26T03:31:01;23.40;63.10
41533;DHT22;27262;-35.248;149.138;2023-02-26T03:36:17;23.40;62.90
41533;DHT22;27262;-35.248;149.138;2023-02-26T03:39:17;23.40;62.80
41533;DHT22;27262;-35.248;149.138;2023-02-26T03:42:10;23.40;62.70
41533;DHT22;27262;-35.248;149.138;2023-02-26T03:45:10;23.50;62.80
41533;DHT22;27262;-35.248;149.138;2023-02-26T03:47:44;23.50;62.60
41533;DHT22;27262;-35.248;149.138;2023-02-26T03:50:18;23.50;62.50
41533;DHT22;27262;-35.248;149.138;2023-02-26T03:52:50;23.50;62.60
41533;DHT22;27262;-35.248;149.138;2023-02-26T03:55:37;23.60;62.50
41533;DHT22;27262;-35.248;149.138;2023-02-26T03:58:08;23.60;62.30
41533;DHT22;27262;-35.248;149.138;2023-02-26T04:00:41;23.60;62.20
41533;DHT22;27262;-35.248;149.138;2023-02-26T04:05:59;23.60;61.80
41533;DHT22;27262;-35.248;149.138;2023-02-26T04:08:30;23.60;61.90
41533;DHT22;27262;-35.248;149.138;2023-02-26T04:11:07;23.70;61.80
41533;DHT22;27262;-35.248;149.138;2023-02-26T04:13:38;23.70;61.70
41533;DHT22;27262;-35.248;149.138;2023-02-26T04:16:08;23.70;61.70
41533;DHT22;27262;-35.248;149.138;2023-02-26T04:18:39;23.70;61.60
41533;DHT22;27262;-35.248;149.138;2023-02-26T04:21:19;23.70;61.30
41533;DHT22;27262;-35.248;149.138;2023-02-26T04:23:50;23.80;60.90
41533;DHT22;27262;-35.248;149.138;2023-02-26T04:26:20;23.80;60.50
41533;DHT22;27262;-35.248;149.138;2023-02-26T04:28:51;23.80;60.00
41533;DHT22;27262;-35.248;149.138;2023-02-26T04:31:21;23.80;59.50
41533;DHT22;27262;-35.248;149.138;2023-02-26T04:33:52;23.80;59.10
41533;DHT22;27262;-35.248;149.138;2023-02-26T04:36:23;23.80;58.80
41533;DHT22;27262;-35.248;149.138;2023-02-26T04:38:54;23.90;58.30
41533;DHT22;27262;-35.248;149.138;2023-02-26T04:41:24;23.90;57.80
41533;DHT22;27262;-35.248;149.138;2023-02-26T04:43:54;23.90;57.40
41533;DHT22;27262;-35.248;149.138;2023-02-26T04:46:25;23.90;57.00
41533;DHT22;27262;-35.248;149.138;2023-02-26T04:48:56;24.00;56.70
41533;DHT22;27262;-35.248;149.138;2023-02-26T04:51:26;24.00;56.60
41533;DHT22;27262;-35.248;149.138;2023-02-26T04:53:56;24.00;56.00
41533;DHT22;27262;-35.248;149.138;2023-02-26T04:56:27;24.00;56.00
41533;DHT22;27262;-35.248;149.138;2023-02-26T04:58:57;24.00;56.00
41533;DHT22;27262;-35.248;149.138;2023-02-26T05:01:27;24.10;56.30
41533;DHT22;27262;-35.248;149.138;2023-02-26T05:03:58;24.10;56.30
41533;DHT22;27262;-35.248;149.138;2023-02-26T05:06:29;24.10;56.30
41533;DHT22;27262;-35.248;149.138;2023-02-26T05:08:59;24.10;57.00
41533;DHT22;27262;-35.248;149.138;2023-02-26T05:11:30;24.10;56.40
41533;DHT22;27262;-35.248;149.138;2023-02-26T05:14:00;24.20;56.50
41533;DHT22;27262;-35.248;149.138;2023-02-26T05:16:30;24.20;56.40
41533;DHT22;27262;-35.248;149.138;2023-02-26T05:19:01;24.20;56.40
41533;DHT22;27262;-35.248;149.138;2023-02-26T05:21:31;24.30;56.20
41533;DHT22;27262;-35.248;149.138;2023-02-26T05:24:01;24.30;56.10
41533;DHT22;27262;-35.248;149.138;2023-02-26T05:26:31;24.30;55.90
41533;DHT22;27262;-35.248;149.138;2023-02-26T05:29:02;24.30;55.60
41533;DHT22;27262;-35.248;149.138;2023-02-26T05:31:36;24.40;55.50
41533;DHT22;27262;-35.248;149.138;2023-02-26T05:34:06;24.40;55.40
41533;DHT22;27262;-35.248;149.138;2023-02-26T05:36:36;24.40;55.20
41533;DHT22;27262;-35.248;149.138;2023-02-26T05:39:08;24.40;55.10
41533;DHT22;27262;-35.248;149.138;2023-02-26T05:41:38;24.50;55.10
41533;DHT22;27262;-35.248;149.138;2023-02-26T05:44:08;24.50;54.90
41533;DHT22;27262;-35.248;149.138;2023-02-26T05:46:39;24.50;54.40
41533;DHT22;27262;-35.248;149.138;2023-02-26T05:49:09;24.50;54.10
41533;DHT22;27262;-35.248;149.138;2023-02-26T05:51:39;24.50;54.00
41533;DHT22;27262;-35.248;149.138;2023-02-26T05:54:11;24.60;54.00
41533;DHT22;27262;-35.248;149.138;2023-02-26T05:56:41;24.60;53.90
41533;DHT22;27262;-35.248;149.138;2023-02-26T05:59:11;24.60;53.90
41533;DHT22;27262;-35.248;149.138;2023-02-26T06:01:42;24.60;54.70
41533;DHT22;27262;-35.248;149.138;2023-02-26T06:04:12;24.60;54.20
41533;DHT22;27262;-35.248;149.138;2023-02-26T06:06:42;24.60;54.30
41533;DHT22;27262;-35.248;149.138;2023-02-26T06:09:13;24.70;54.60
41533;DHT22;27262;-35.248;149.138;2023-02-26T06:11:43;24.60;54.70
41533;DHT22;27262;-35.248;149.138;2023-02-26T06:14:13;24.70;54.90
41533;DHT22;27262;-35.248;149.138;2023-02-26T06:16:44;24.70;55.00
41533;DHT22;27262;-35.248;149.138;2023-02-26T06:19:14;24.70;55.20
41533;DHT22;27262;-35.248;149.138;2023-02-26T06:21:45;24.70;55.30
41533;DHT22;27262;-35.248;149.138;2023-02-26T06:24:15;24.70;55.30
41533;DHT22;27262;-35.248;149.138;2023-02-26T06:26:45;24.70;55.40
41533;DHT22;27262;-35.248;149.138;2023-02-26T06:29:16;24.70;55.60
41533;DHT22;27262;-35.248;149.138;2023-02-26T06:31:47;24.80;55.90
41533;DHT22;27262;-35.248;149.138;2023-02-26T06:34:18;24.80;56.00
41533;DHT22;27262;-35.248;149.138;2023-02-26T06:36:48;24.80;56.20
41533;DHT22;27262;-35.248;149.138;2023-02-26T06:39:18;24.80;56.30
41533;DHT22;27262;-35.248;149.138;2023-02-26T06:41:49;24.80;56.40
41533;DHT22;27262;-35.248;149.138;2023-02-26T06:44:19;24.80;56.50
41533;DHT22;27262;-35.248;149.138;2023-02-26T06:46:50;24.80;56.60
41533;DHT22;27262;-35.248;149.138;2023-02-26T06:49:21;24.90;56.70
41533;DHT22;27262;-35.248;149.138;2023-02-26T06:51:51;24.80;56.70
41533;DHT22;27262;-35.248;149.138;2023-02-26T06:54:22;24.90;56.80
41533;DHT22;27262;-35.248;149.138;2023-02-26T06:56:52;24.90;56.90
41533;DHT22;27262;-35.248;149.138;2023-02-26T06:59:26;24.90;57.00
41533;DHT22;27262;-35.248;149.138;2023-02-26T07:01:56;24.90;57.10
41533;DHT22;27262;-35.248;149.138;2023-02-26T07:04:26;24.90;57.10
41533;DHT22;27262;-35.248;149.138;2023-02-26T07:06:57;24.90;57.10
41533;DHT22;27262;-35.248;149.138;2023-02-26T07:09:27;24.90;57.00
41533;DHT22;27262;-35.248;149.138;2023-02-26T07:11:57;25.00;57.10
41533;DHT22;27262;-35.248;149.138;2023-02-26T07:14:27;24.90;57.00
41533;DHT22;27262;-35.248;149.138;2023-02-26T07:16:59;25.00;57.10
41533;DHT22;27262;-35.248;149.138;2023-02-26T07:19:30;25.00;57.20
41533;DHT22;27262;-35.248;149.138;2023-02-26T07:22:00;25.00;57.20
41533;DHT22;27262;-35.248;149.138;2023-02-26T07:24:30;25.00;57.20
41533;DHT22;27262;-35.248;149.138;2023-02-26T07:27:01;25.00;57.20
41533;DHT22;27262;-35.248;149.138;2023-02-26T07:29:31;25.00;57.20
41533;DHT22;27262;-35.248;149.138;2023-02-26T07:32:02;25.00;57.30
41533;DHT22;27262;-35.248;149.138;2023-02-26T07:34:33;25.10;57.30
41533;DHT22;27262;-35.248;149.138;2023-02-26T07:37:03;25.10;57.30
41533;DHT22;27262;-35.248;149.138;2023-02-26T07:39:33;25.10;57.40
41533;DHT22;27262;-35.248;149.138;2023-02-26T07:42:04;25.10;57.40
41533;DHT22;27262;-35.248;149.138;2023-02-26T07:44:34;25.10;57.40
41533;DHT22;27262;-35.248;149.138;2023-02-26T07:47:05;25.10;57.40
41533;DHT22;27262;-35.248;149.138;2023-02-26T07:49:35;25.10;57.40
41533;DHT22;27262;-35.248;149.138;2023-02-26T07:52:06;25.10;57.40
41533;DHT22;27262;-35.248;149.138;2023-02-26T07:54:36;25.10;57.40
41533;DHT22;27262;-35.248;149.138;2023-02-26T07:57:07;25.20;57.40
41533;DHT22;27262;-35.248;149.138;2023-02-26T07:59:37;25.20;57.40
41533;DHT22;27262;-35.248;149.138;2023-02-26T08:02:09;25.10;57.40
41533;DHT22;27262;-35.248;149.138;2023-02-26T08:04:39;25.20;57.40
41533;DHT22;27262;-35.248;149.138;2023-02-26T08:07:11;25.20;57.50
41533;DHT22;27262;-35.248;149.138;2023-02-26T08:09:41;25.10;57.50
41533;DHT22;27262;-35.248;149.138;2023-02-26T08:12:11;25.10;57.40
41533;DHT22;27262;-35.248;149.138;2023-02-26T08:14:41;25.20;57.50
41533;DHT22;27262;-35.248;149.138;2023-02-26T08:17:12;25.20;57.50
41533;DHT22;27262;-35.248;149.138;2023-02-26T08:19:42;25.20;57.50
41533;DHT22;27262;-35.248;149.138;2023-02-26T08:22:13;25.20;57.50
41533;DHT22;27262;-35.248;149.138;2023-02-26T08:24:43;25.20;57.50
41533;DHT22;27262;-35.248;149.138;2023-02-26T08:27:13;25.20;57.50
41533;DHT22;27262;-35.248;149.138;2023-02-26T08:29:43;25.20;57.50
41533;DHT22;27262;-35.248;149.138;2023-02-26T08:32:15;25.20;57.50
41533;DHT22;27262;-35.248;149.138;2023-02-26T08:34:46;25.20;57.50
41533;DHT22;27262;-35.248;149.138;2023-02-26T08:37:16;25.20;57.60
41533;DHT22;27262;-35.248;149.138;2023-02-26T08:39:47;25.20;57.60
41533;DHT22;27262;-35.248;149.138;2023-02-26T08:42:17;25.20;57.60
41533;DHT22;27262;-35.248;149.138;2023-02-26T08:44:48;25.20;57.60
41533;DHT22;27262;-35.248;149.138;2023-02-26T08:47:19;25.20;57.60
41533;DHT22;27262;-35.248;149.138;2023-02-26T08:49:55;25.20;57.60
41533;DHT22;27262;-35.248;149.138;2023-02-26T08:52:27;25.20;57.60
41533;DHT22;27262;-35.248;149.138;2023-02-26T08:54:57;25.20;57.70
41533;DHT22;27262;-35.248;149.138;2023-02-26T08:57:28;25.20;57.80
41533;DHT22;27262;-35.248;149.138;2023-02-26T08:59:58;25.30;58.10
41533;DHT22;27262;-35.248;149.138;2023-02-26T09:02:29;25.30;58.10
41533;DHT22;27262;-35.248;149.138;2023-02-26T09:04:59;25.30;58.10
41533;DHT22;27262;-35.248;149.138;2023-02-26T09:07:29;25.30;58.40
41533;DHT22;27262;-35.248;149.138;2023-02-26T09:10:00;25.20;58.40
41533;DHT22;27262;-35.248;149.138;2023-02-26T09:12:30;25.30;58.40
41533;DHT22;27262;-35.248;149.138;2023-02-26T09:15:01;25.30;58.40
41533;DHT22;27262;-35.248;149.138;2023-02-26T09:17:33;25.30;58.20
41533;DHT22;27262;-35.248;149.138;2023-02-26T09:20:04;25.30;58.30
41533;DHT22;27262;-35.248;149.138;2023-02-26T09:22:35;25.30;58.30
41533;DHT22;27262;-35.248;149.138;2023-02-26T09:25:07;25.30;58.20
41533;DHT22;27262;-35.248;149.138;2023-02-26T09:27:37;25.30;58.30
41533;DHT22;27262;-35.248;149.138;2023-02-26T09:30:08;25.30;58.20
41533;DHT22;27262;-35.248;149.138;2023-02-26T09:32:39;25.30;58.10
41533;DHT22;27262;-35.248;149.138;2023-02-26T09:35:09;25.30;58.10
41533;DHT22;27262;-35.248;149.138;2023-02-26T09:37:40;25.30;58.00
41533;DHT22;27262;-35.248;149.138;2023-02-26T09:40:43;25.30;57.90
41533;DHT22;27262;-35.248;149.138;2023-02-26T09:47:18;25.30;57.70
41533;DHT22;27262;-35.248;149.138;2023-02-26T09:49:34;25.30;57.90
41533;DHT22;27262;-35.248;149.138;2023-02-26T09:52:26;25.30;57.80
41533;DHT22;27262;-35.248;149.138;2023-02-26T09:55:15;25.30;57.70
41533;DHT22;27262;-35.248;149.138;2023-02-26T09:57:48;25.30;57.70
41533;DHT22;27262;-35.248;149.138;2023-02-26T10:08:45;25.30;57.70
41533;DHT22;27262;-35.248;149.138;2023-02-26T10:11:24;25.30;57.70
41533;DHT22;27262;-35.248;149.138;2023-02-26T10:14:10;25.30;57.80
41533;DHT22;27262;-35.248;149.138;2023-02-26T10:16:45;25.30;57.80
41533;DHT22;27262;-35.248;149.138;2023-02-26T10:19:19;25.30;57.70
41533;DHT22;27262;-35.248;149.138;2023-02-26T10:22:04;25.30;57.80
41533;DHT22;27262;-35.248;149.138;2023-02-26T10:24:48;25.30;57.80
41533;DHT22;27262;-35.248;149.138;2023-02-26T10:27:39;25.30;57.80
41533;DHT22;27262;-35.248;149.138;2023-02-26T10:35:45;25.20;57.80
41533;DHT22;27262;-35.248;149.138;2023-02-26T10:38:25;25.20;57.90
41533;DHT22;27262;-35.248;149.138;2023-02-26T10:41:08;25.20;57.90
41533;DHT22;27262;-35.248;149.138;2023-02-26T10:43:42;25.20;57.90
41533;DHT22;27262;-35.248;149.138;2023-02-26T10:51:30;25.20;58.20
41533;DHT22;27262;-35.248;149.138;2023-02-26T10:57:00;25.20;58.20
41533;DHT22;27262;-35.248;149.138;2023-02-26T10:59:31;25.10;58.20
41533;DHT22;27262;-35.248;149.138;2023-02-26T11:02:02;25.20;58.20
41533;DHT22;27262;-35.248;149.138;2023-02-26T11:04:32;25.20;58.30
41533;DHT22;27262;-35.248;149.138;2023-02-26T11:07:04;25.20;58.30
41533;DHT22;27262;-35.248;149.138;2023-02-26T11:09:39;25.20;58.30
41533;DHT22;27262;-35.248;149.138;2023-02-26T11:14:43;25.10;58.30
41533;DHT22;27262;-35.248;149.138;2023-02-26T11:17:17;25.10;58.30
41533;DHT22;27262;-35.248;149.138;2023-02-26T11:20:10;25.20;58.30
41533;DHT22;27262;-35.248;149.138;2023-02-26T11:22:52;25.20;58.30
41533;DHT22;27262;-35.248;149.138;2023-02-26T11:25:27;25.10;58.30
41533;DHT22;27262;-35.248;149.138;2023-02-26T11:28:06;25.10;58.40
41533;DHT22;27262;-35.248;149.138;2023-02-26T11:30:44;25.10;58.40
41533;DHT22;27262;-35.248;149.138;2023-02-26T11:34:07;25.10;58.40
41533;DHT22;27262;-35.248;149.138;2023-02-26T11:36:16;25.10;58.40
41533;DHT22;27262;-35.248;149.138;2023-02-26T11:39:06;25.10;58.40
41533;DHT22;27262;-35.248;149.138;2023-02-26T11:41:38;25.10;58.50
41533;DHT22;27262;-35.248;149.138;2023-02-26T11:44:15;25.10;58.40
41533;DHT22;27262;-35.248;149.138;2023-02-26T11:46:56;25.10;58.40
41533;DHT22;27262;-35.248;149.138;2023-02-26T11:49:27;25.10;58.40
41533;DHT22;27262;-35.248;149.138;2023-02-26T11:52:16;25.10;58.50
41533;DHT22;27262;-35.248;149.138;2023-02-26T11:54:49;25.10;58.40
41533;DHT22;27262;-35.248;149.138;2023-02-26T11:57:28;25.10;58.50
41533;DHT22;27262;-35.248;149.138;2023-02-26T12:00:02;25.10;58.50
41533;DHT22;27262;-35.248;149.138;2023-02-26T12:02:45;25.00;58.50
41533;DHT22;27262;-35.248;149.138;2023-02-26T12:05:17;25.00;58.60
41533;DHT22;27262;-35.248;149.138;2023-02-26T12:07:47;25.00;58.70
41533;DHT22;27262;-35.248;149.138;2023-02-26T12:10:25;25.00;58.70
41533;DHT22;27262;-35.248;149.138;2023-02-26T12:16:46;25.00;58.70
41533;DHT22;27262;-35.248;149.138;2023-02-26T12:19:39;25.00;58.80
41533;DHT22;27262;-35.248;149.138;2023-02-26T12:27:57;25.00;59.00
41533;DHT22;27262;-35.248;149.138;2023-02-26T12:33:55;25.00;59.10
41533;DHT22;27262;-35.248;149.138;2023-02-26T12:45:24;24.90;59.30
41533;DHT22;27262;-35.248;149.138;2023-02-26T12:48:11;24.90;59.40
41533;DHT22;27262;-35.248;149.138;2023-02-26T12:50:57;24.90;59.40
41533;DHT22;27262;-35.248;149.138;2023-02-26T12:53:56;24.90;60.20
41533;DHT22;27262;-35.248;149.138;2023-02-26T12:59:25;24.90;59.60
41533;DHT22;27262;-35.248;149.138;2023-02-26T13:11:08;24.80;59.60
41533;DHT22;27262;-35.248;149.138;2023-02-26T13:13:56;24.80;59.80
41533;DHT22;27262;-35.248;149.138;2023-02-26T13:19:28;24.80;59.80
41533;DHT22;27262;-35.248;149.138;2023-02-26T13:25:04;24.80;59.80
41533;DHT22;27262;-35.248;149.138;2023-02-26T13:27:39;24.80;59.90
41533;DHT22;27262;-35.248;149.138;2023-02-26T13:32:52;24.80;59.90
41533;DHT22;27262;-35.248;149.138;2023-02-26T13:35:36;24.80;60.00
41533;DHT22;27262;-35.248;149.138;2023-02-26T13:51:39;24.70;60.00
41533;DHT22;27262;-35.248;149.138;2023-02-26T14:04:58;24.70;60.00
41533;DHT22;27262;-35.248;149.138;2023-02-26T14:07:51;24.70;60.00
41533;DHT22;27262;-35.248;149.138;2023-02-26T14:13:41;24.70;60.00
41533;DHT22;27262;-35.248;149.138;2023-02-26T14:16:28;24.60;60.00
41533;DHT22;27262;-35.248;149.138;2023-02-26T14:19:27;24.60;59.90
41533;DHT22;27262;-35.248;149.138;2023-02-26T14:24:51;24.60;60.00
41533;DHT22;27262;-35.248;149.138;2023-02-26T14:27:32;24.60;60.00
41533;DHT22;27262;-35.248;149.138;2023-02-26T14:35:32;24.60;59.90
41533;DHT22;27262;-35.248;149.138;2023-02-26T14:38:25;24.50;59.90
41533;DHT22;27262;-35.248;149.138;2023-02-26T14:41:01;24.60;59.80
41533;DHT22;27262;-35.248;149.138;2023-02-26T14:43:40;24.50;60.00
41533;DHT22;27262;-35.248;149.138;2023-02-26T14:46:12;24.50;59.90
41533;DHT22;27262;-35.248;149.138;2023-02-26T14:48:43;24.50;59.90
41533;DHT22;27262;-35.248;149.138;2023-02-26T14:51:29;24.50;59.90
41533;DHT22;27262;-35.248;149.138;2023-02-26T14:54:31;24.50;59.80
41533;DHT22;27262;-35.248;149.138;2023-02-26T15:23:25;24.40;60.10
41533;DHT22;27262;-35.248;149.138;2023-02-26T15:25:56;24.40;60.00
41533;DHT22;27262;-35.248;149.138;2023-02-26T15:28:36;24.30;60.00
41533;DHT22;27262;-35.248;149.138;2023-02-26T15:31:08;24.40;60.00
41533;DHT22;27262;-35.248;149.138;2023-02-26T15:33:41;24.30;60.00
41533;DHT22;27262;-35.248;149.138;2023-02-26T15:36:18;24.30;60.00
41533;DHT22;27262;-35.248;149.138;2023-02-26T15:38:56;24.40;60.10
41533;DHT22;27262;-35.248;149.138;2023-02-26T15:41:28;24.30;60.00
41533;DHT22;27262;-35.248;149.138;2023-02-26T15:44:07;24.30;60.00
41533;DHT22;27262;-35.248;149.138;2023-02-26T15:46:47;24.30;60.00
41533;DHT22;27262;-35.248;149.138;2023-02-26T15:49:37;24.30;60.00
41533;DHT22;27262;-35.248;149.138;2023-02-26T15:52:14;24.30;60.00
41533;DHT22;27262;-35.248;149.138;2023-02-26T15:57:24;24.30;60.00
41533;DHT22;27262;-35.248;149.138;2023-02-26T16:00:20;24.30;60.00
41533;DHT22;27262;-35.248;149.138;2023-02-26T16:02:56;24.30;60.00
41533;DHT22;27262;-35.248;149.138;2023-02-26T16:05:28;24.20;60.20
41533;DHT22;27262;-35.248;149.138;2023-02-26T16:07:58;24.20;60.10
41533;DHT22;27262;-35.248;149.138;2023-02-26T16:10:35;24.20;60.10
41533;DHT22;27262;-35.248;149.138;2023-02-26T16:13:14;24.20;60.10
41533;DHT22;27262;-35.248;149.138;2023-02-26T16:15:47;24.20;60.10
41533;DHT22;27262;-35.248;149.138;2023-02-26T16:18:22;24.20;60.20
41533;DHT22;27262;-35.248;149.138;2023-02-26T16:20:55;24.20;60.20
41533;DHT22;27262;-35.248;149.138;2023-02-26T16:23:40;24.20;60.20
41533;DHT22;27262;-35.248;149.138;2023-02-26T16:26:37;24.20;60.20
41533;DHT22;27262;-35.248;149.138;2023-02-26T16:29:13;24.10;60.20
41533;DHT22;27262;-35.248;149.138;2023-02-26T16:31:49;24.10;60.20
41533;DHT22;27262;-35.248;149.138;2023-02-26T16:37:32;24.10;60.20
41533;DHT22;27262;-35.248;149.138;2023-02-26T16:40:32;24.10;60.20
41533;DHT22;27262;-35.248;149.138;2023-02-26T16:43:51;24.10;60.20
41533;DHT22;27262;-35.248;149.138;2023-02-26T16:45:56;24.10;60.40
41533;DHT22;27262;-35.248;149.138;2023-02-26T16:48:34;24.10;60.40
41533;DHT22;27262;-35.248;149.138;2023-02-26T16:51:11;24.10;60.40
41533;DHT22;27262;-35.248;149.138;2023-02-26T16:53:47;24.00;61.10
41533;DHT22;27262;-35.248;149.138;2023-02-26T16:56:20;24.10;60.40
41533;DHT22;27262;-35.248;149.138;2023-02-26T16:59:23;24.00;60.30
41533;DHT22;27262;-35.248;149.138;2023-02-26T17:02:21;24.00;60.30
41533;DHT22;27262;-35.248;149.138;2023-02-26T17:05:00;24.00;60.30
41533;DHT22;27262;-35.248;149.138;2023-02-26T17:07:34;24.00;60.40
41533;DHT22;27262;-35.248;149.138;2023-02-26T17:10:12;24.00;60.40
41533;DHT22;27262;-35.248;149.138;2023-02-26T17:12:50;24.00;60.40
41533;DHT22;27262;-35.248;149.138;2023-02-26T17:15:36;23.90;60.30
41533;DHT22;27262;-35.248;149.138;2023-02-26T17:18:07;23.90;60.30
41533;DHT22;27262;-35.248;149.138;2023-02-26T17:20:38;23.90;60.40
41533;DHT22;27262;-35.248;149.138;2023-02-26T17:23:09;23.90;60.40
41533;DHT22;27262;-35.248;149.138;2023-02-26T17:25:45;23.90;60.40
41533;DHT22;27262;-35.248;149.138;2023-02-26T17:28:28;23.90;60.40
41533;DHT22;27262;-35.248;149.138;2023-02-26T17:31:00;23.90;60.40
41533;DHT22;27262;-35.248;149.138;2023-02-26T17:33:30;23.90;60.50
41533;DHT22;27262;-35.248;149.138;2023-02-26T17:36:02;23.90;60.50
41533;DHT22;27262;-35.248;149.138;2023-02-26T17:38:33;23.90;60.50
41533;DHT22;27262;-35.248;149.138;2023-02-26T17:41:04;23.90;60.50
41533;DHT22;27262;-35.248;149.138;2023-02-26T17:43:34;23.90;60.50
41533;DHT22;27262;-35.248;149.138;2023-02-26T17:46:04;23.90;60.50
41533;DHT22;27262;-35.248;149.138;2023-02-26T17:48:35;23.90;60.50
41533;DHT22;27262;-35.248;149.138;2023-02-26T17:51:05;23.80;60.50
41533;DHT22;27262;-35.248;149.138;2023-02-26T17:53:35;23.80;60.50
41533;DHT22;27262;-35.248;149.138;2023-02-26T17:56:48;23.80;60.50
41533;DHT22;27262;-35.248;149.138;2023-02-26T17:59:13;23.80;60.50
41533;DHT22;27262;-35.248;149.138;2023-02-26T18:01:43;23.80;60.60
41533;DHT22;27262;-35.248;149.138;2023-02-26T18:04:13;23.80;60.60
41533;DHT22;27262;-35.248;149.138;2023-02-26T18:06:45;23.80;60.60
41533;DHT22;27262;-35.248;149.138;2023-02-26T18:09:16;23.80;60.60
41533;DHT22;27262;-35.248;149.138;2023-02-26T18:11:46;23.80;60.60
41533;DHT22;27262;-35.248;149.138;2023-02-26T18:14:16;23.80;60.70
41533;DHT22;27262;-35.248;149.138;2023-02-26T18:16:47;23.70;60.60
41533;DHT22;27262;-35.248;149.138;2023-02-26T18:19:17;23.70;60.60
41533;DHT22;27262;-35.248;149.138;2023-02-26T18:21:47;23.70;60.60
41533;DHT22;27262;-35.248;149.138;2023-02-26T18:24:18;23.70;60.60
41533;DHT22;27262;-35.248;149.138;2023-02-26T18:26:48;23.70;60.60
41533;DHT22;27262;-35.248;149.138;2023-02-26T18:29:19;23.70;60.70
41533;DHT22;27262;-35.248;149.138;2023-02-26T18:31:50;23.70;60.70
41533;DHT22;27262;-35.248;149.138;2023-02-26T18:34:20;23.70;60.70
41533;DHT22;27262;-35.248;149.138;2023-02-26T18:36:50;23.60;60.60